sensor_id;sensor_type;location;lat;lon;timestamp;pressure;altitude;pressure_sealevel;temperature;humidity
34034;BME280;63481;52.588;22.472;2023-04-27T00:00:12;100111.63;;;1.97;89.89
34034;BME280;63481;52.588;22.472;2023-04-27T00:01:08;100115.61;;;2.04;89.61
34034;BME280;63481;52.588;22.472;2023-04-27T00:01:41;100115.65;;;2.01;89.58
34034;BME280;63481;52.588;22.472;2023-04-27T00:02:13;100116.34;;;2.01;89.46
34034;BME280;63481;52.588;22.472;2023-04-27T00:02:46;100118.33;;;1.97;89.59
34034;BME280;63481;52.588;22.472;2023-04-27T00:03:18;100117.58;;;1.98;89.69
34034;BME280;63481;52.588;22.472;2023-04-27T00:03:50;100116.60;;;1.95;89.62
34034;BME280;63481;52.588;22.472;2023-04-27T00:04:22;100116.13;;;1.91;89.68
34034;BME280;63481;52.588;22.472;2023-04-27T00:04:56;100115.39;;;1.91;89.73
34034;BME280;63481;52.588;22.472;2023-04-27T00:05:28;100116.30;;;1.89;89.67
34034;BME280;63481;52.588;22.472;2023-04-27T00:06:00;100114.17;;;1.88;89.70
34034;BME280;63481;52.588;22.472;2023-04-27T00:06:32;100114.27;;;1.85;89.82
34034;BME280;63481;52.588;22.472;2023-04-27T00:07:05;100116.05;;;1.83;89.81
34034;BME280;63481;52.588;22.472;2023-04-27T00:07:37;100117.52;;;1.84;90.04
34034;BME280;63481;52.588;22.472;2023-04-27T00:08:09;100117.72;;;1.84;89.78
34034;BME280;63481;52.588;22.472;2023-04-27T00:08:41;100116.33;;;1.86;89.80
34034;BME280;63481;52.588;22.472;2023-04-27T00:09:13;100115.36;;;1.88;89.74
34034;BME280;63481;52.588;22.472;2023-04-27T00:09:45;100119.07;;;1.90;89.75
34034;BME280;63481;52.588;22.472;2023-04-27T00:10:17;100118.70;;;1.88;89.59
34034;BME280;63481;52.588;22.472;2023-04-27T00:10:49;100125.23;;;1.84;89.50
34034;BME280;63481;52.588;22.472;2023-04-27T00:11:21;100119.46;;;1.86;89.70
34034;BME280;63481;52.588;22.472;2023-04-27T00:11:53;100121.39;;;1.82;89.70
34034;BME280;63481;52.588;22.472;2023-04-27T00:12:26;100122.41;;;1.79;89.66
34034;BME280;63481;52.588;22.472;2023-04-27T00:12:58;100123.50;;;1.77;89.82
34034;BME280;63481;52.588;22.472;2023-04-27T00:13:30;100125.71;;;1.74;89.93
34034;BME280;63481;52.588;22.472;2023-04-27T00:14:02;100127.41;;;1.74;90.09
34034;BME280;63481;52.588;22.472;2023-04-27T00:14:34;100126.99;;;1.73;90.04
34034;BME280;63481;52.588;22.472;2023-04-27T00:15:07;100128.09;;;1.74;90.13
34034;BME280;63481;52.588;22.472;2023-04-27T00:15:39;100127.88;;;1.76;90.00
34034;BME280;63481;52.588;22.472;2023-04-27T00:16:11;100127.95;;;1.74;89.82
34034;BME280;63481;52.588;22.472;2023-04-27T00:16:44;100126.48;;;1.75;89.87
34034;BME280;63481;52.588;22.472;2023-04-27T00:17:16;100125.95;;;1.75;89.90
34034;BME280;63481;52.588;22.472;2023-04-27T00:17:48;100128.98;;;1.74;89.90
34034;BME280;63481;52.588;22.472;2023-04-27T00:18:20;100132.05;;;1.73;89.83
34034;BME280;63481;52.588;22.472;2023-04-27T00:18:52;100130.23;;;1.72;89.93
34034;BME280;63481;52.588;22.472;2023-04-27T00:19:24;100126.79;;;1.72;89.93
34034;BME280;63481;52.588;22.472;2023-04-27T00:19:56;100130.11;;;1.72;89.75
34034;BME280;63481;52.588;22.472;2023-04-27T00:20:29;100130.19;;;1.73;90.00
34034;BME280;63481;52.588;22.472;2023-04-27T00:21:01;100130.41;;;1.72;89.65
34034;BME280;63481;52.588;22.472;2023-04-27T00:21:33;100133.63;;;1.70;89.81
34034;BME280;63481;52.588;22.472;2023-04-27T00:22:07;100130.08;;;1.72;89.77
34034;BME280;63481;52.588;22.472;2023-04-27T00:22:39;100131.27;;;1.69;89.77
34034;BME280;63481;52.588;22.472;2023-04-27T00:23:12;100130.91;;;1.66;89.82
34034;BME280;63481;52.588;22.472;2023-04-27T00:23:44;100133.45;;;1.65;89.66
34034;BME280;63481;52.588;22.472;2023-04-27T00:24:16;100132.04;;;1.63;90.04
34034;BME280;63481;52.588;22.472;2023-04-27T00:24:49;100131.46;;;1.64;90.04
34034;BME280;63481;52.588;22.472;2023-04-27T00:25:21;100133.23;;;1.69;89.97
34034;BME280;63481;52.588;22.472;2023-04-27T00:25:53;100129.94;;;1.70;89.93
34034;BME280;63481;52.588;22.472;2023-04-27T00:26:25;100135.11;;;1.69;89.85
34034;BME280;63481;52.588;22.472;2023-04-27T00:26:58;100133.92;;;1.69;89.94
34034;BME280;63481;52.588;22.472;2023-04-27T00:27:30;100136.48;;;1.68;89.77
34034;BME280;63481;52.588;22.472;2023-04-27T00:28:02;100135.39;;;1.70;89.62
34034;BME280;63481;52.588;22.472;2023-04-27T00:28:34;100133.63;;;1.68;89.68
34034;BME280;63481;52.588;22.472;2023-04-27T00:29:06;100134.59;;;1.68;89.61
34034;BME280;63481;52.588;22.472;2023-04-27T00:29:39;100136.09;;;1.65;89.50
34034;BME280;63481;52.588;22.472;2023-04-27T00:30:14;100136.31;;;1.61;89.50
34034;BME280;63481;52.588;22.472;2023-04-27T00:30:46;100135.39;;;1.58;89.63
34034;BME280;63481;52.588;22.472;2023-04-27T00:31:19;100139.23;;;1.55;89.84
34034;BME280;63481;52.588;22.472;2023-04-27T00:31:51;100136.42;;;1.53;89.89
34034;BME280;63481;52.588;22.472;2023-04-27T00:32:23;100136.69;;;1.50;90.00
34034;BME280;63481;52.588;22.472;2023-04-27T00:32:56;100134.40;;;1.54;90.04
34034;BME280;63481;52.588;22.472;2023-04-27T00:33:28;100137.52;;;1.58;89.97
34034;BME280;63481;52.588;22.472;2023-04-27T00:34:00;100142.89;;;1.57;90.13
34034;BME280;63481;52.588;22.472;2023-04-27T00:34:32;100136.95;;;1.58;90.10
34034;BME280;63481;52.588;22.472;2023-04-27T00:35:04;100137.08;;;1.55;89.91
34034;BME280;63481;52.588;22.472;2023-04-27T00:35:37;100141.29;;;1.57;90.02
34034;BME280;63481;52.588;22.472;2023-04-27T00:36:09;100138.40;;;1.57;90.04
34034;BME280;63481;52.588;22.472;2023-04-27T00:36:41;100140.04;;;1.57;89.82
34034;BME280;63481;52.588;22.472;2023-04-27T00:37:13;100140.69;;;1.56;89.87
34034;BME280;63481;52.588;22.472;2023-04-27T00:37:45;100141.04;;;1.54;89.71
34034;BME280;63481;52.588;22.472;2023-04-27T00:38:17;100140.52;;;1.52;89.86
34034;BME280;63481;52.588;22.472;2023-04-27T00:38:49;100137.10;;;1.51;90.03
34034;BME280;63481;52.588;22.472;2023-04-27T00:39:21;100142.19;;;1.51;90.18
34034;BME280;63481;52.588;22.472;2023-04-27T00:39:53;100143.60;;;1.48;89.90
34034;BME280;63481;52.588;22.472;2023-04-27T00:40:25;100143.05;;;1.45;90.11
34034;BME280;63481;52.588;22.472;2023-04-27T00:41:05;100143.95;;;1.42;89.92
34034;BME280;63481;52.588;22.472;2023-04-27T00:41:38;100142.82;;;1.42;90.02
34034;BME280;63481;52.588;22.472;2023-04-27T00:42:10;100145.29;;;1.40;90.15
34034;BME280;63481;52.588;22.472;2023-04-27T00:42:46;100144.73;;;1.38;90.32
34034;BME280;63481;52.588;22.472;2023-04-27T00:43:18;100143.93;;;1.37;90.44
34034;BME280;63481;52.588;22.472;2023-04-27T00:43:50;100145.20;;;1.37;90.27
34034;BME280;63481;52.588;22.472;2023-04-27T00:44:23;100143.48;;;1.38;90.21
34034;BME280;63481;52.588;22.472;2023-04-27T00:44:57;100144.78;;;1.37;90.19
34034;BME280;63481;52.588;22.472;2023-04-27T00:45:29;100144.31;;;1.37;90.15
34034;BME280;63481;52.588;22.472;2023-04-27T00:46:02;100142.83;;;1.36;90.16
34034;BME280;63481;52.588;22.472;2023-04-27T00:46:34;100141.97;;;1.34;90.12
34034;BME280;63481;52.588;22.472;2023-04-27T00:47:07;100142.88;;;1.34;90.28
34034;BME280;63481;52.588;22.472;2023-04-27T00:47:41;100143.83;;;1.33;90.38
34034;BME280;63481;52.588;22.472;2023-04-27T00:48:13;100143.70;;;1.31;90.26
34034;BME280;63481;52.588;22.472;2023-04-27T00:48:45;100143.45;;;1.28;90.24
34034;BME280;63481;52.588;22.472;2023-04-27T00:49:22;100144.18;;;1.30;90.48
34034;BME280;63481;52.588;22.472;2023-04-27T00:49:54;100143.98;;;1.26;90.43
34034;BME280;63481;52.588;22.472;2023-04-27T00:50:30;100143.10;;;1.26;90.52
34034;BME280;63481;52.588;22.472;2023-04-27T00:51:02;100142.93;;;1.26;90.55
34034;BME280;63481;52.588;22.472;2023-04-27T00:51:34;100142.69;;;1.27;90.64
34034;BME280;63481;52.588;22.472;2023-04-27T00:52:07;100145.75;;;1.28;90.59
34034;BME280;63481;52.588;22.472;2023-04-27T00:52:39;100142.89;;;1.29;90.59
34034;BME280;63481;52.588;22.472;2023-04-27T00:53:13;100144.67;;;1.30;90.60
34034;BME280;63481;52.588;22.472;2023-04-27T00:53:48;100145.20;;;1.32;90.40
34034;BME280;63481;52.588;22.472;2023-04-27T00:54:22;100147.48;;;1.33;90.35
34034;BME280;63481;52.588;22.472;2023-04-27T00:54:56;100143.11;;;1.33;90.34
34034;BME280;63481;52.588;22.472;2023-04-27T00:55:28;100144.41;;;1.32;90.38
34034;BME280;63481;52.588;22.472;2023-04-27T00:56:00;100145.69;;;1.36;90.39
34034;BME280;63481;52.588;22.472;2023-04-27T00:56:34;100146.45;;;1.33;90.30
34034;BME280;63481;52.588;22.472;2023-04-27T00:57:06;100145.69;;;1.29;90.32
34034;BME280;63481;52.588;22.472;2023-04-27T00:57:39;100146.72;;;1.31;90.34
34034;BME280;63481;52.588;22.472;2023-04-27T00:58:11;100146.67;;;1.31;90.30
34034;BME280;63481;52.588;22.472;2023-04-27T00:58:43;100146.20;;;1.31;90.37
34034;BME280;63481;52.588;22.472;2023-04-27T00:59:18;100143.80;;;1.32;90.30
34034;BME280;63481;52.588;22.472;2023-04-27T00:59:52;100144.16;;;1.30;90.31
34034;BME280;63481;52.588;22.472;2023-04-27T01:00:24;100145.73;;;1.30;90.46
34034;BME280;63481;52.588;22.472;2023-04-27T01:00:57;100147.15;;;1.30;90.40
34034;BME280;63481;52.588;22.472;2023-04-27T01:01:29;100146.22;;;1.30;90.25
34034;BME280;63481;52.588;22.472;2023-04-27T01:02:01;100146.68;;;1.33;90.28
34034;BME280;63481;52.588;22.472;2023-04-27T01:02:33;100146.60;;;1.32;90.33
34034;BME280;63481;52.588;22.472;2023-04-27T01:03:06;100146.04;;;1.30;90.20
34034;BME280;63481;52.588;22.472;2023-04-27T01:03:38;100147.64;;;1.30;90.23
34034;BME280;63481;52.588;22.472;2023-04-27T01:04:11;100149.17;;;1.29;90.34
34034;BME280;63481;52.588;22.472;2023-04-27T01:04:43;100147.34;;;1.30;90.42
34034;BME280;63481;52.588;22.472;2023-04-27T01:05:15;100150.01;;;1.27;90.35
34034;BME280;63481;52.588;22.472;2023-04-27T01:05:47;100148.96;;;1.26;90.19
34034;BME280;63481;52.588;22.472;2023-04-27T01:06:19;100148.23;;;1.24;90.36
34034;BME280;63481;52.588;22.472;2023-04-27T01:06:51;100154.29;;;1.26;90.34
34034;BME280;63481;52.588;22.472;2023-04-27T01:07:25;100156.40;;;1.27;90.27
34034;BME280;63481;52.588;22.472;2023-04-27T01:07:57;100153.66;;;1.24;90.21
34034;BME280;63481;52.588;22.472;2023-04-27T01:08:29;100155.08;;;1.22;90.20
34034;BME280;63481;52.588;22.472;2023-04-27T01:09:01;100155.21;;;1.23;90.25
34034;BME280;63481;52.588;22.472;2023-04-27T01:09:33;100154.59;;;1.22;90.25
34034;BME280;63481;52.588;22.472;2023-04-27T01:10:06;100152.27;;;1.24;90.32
34034;BME280;63481;52.588;22.472;2023-04-27T01:10:38;100155.26;;;1.20;90.40
34034;BME280;63481;52.588;22.472;2023-04-27T01:11:10;100154.40;;;1.20;90.27
34034;BME280;63481;52.588;22.472;2023-04-27T01:11:47;100157.11;;;1.23;90.45
34034;BME280;63481;52.588;22.472;2023-04-27T01:12:19;100154.88;;;1.26;90.26
34034;BME280;63481;52.588;22.472;2023-04-27T01:12:53;100152.71;;;1.25;90.41
34034;BME280;63481;52.588;22.472;2023-04-27T01:13:25;100154.80;;;1.21;90.17
34034;BME280;63481;52.588;22.472;2023-04-27T01:13:57;100155.21;;;1.17;90.35
34034;BME280;63481;52.588;22.472;2023-04-27T01:14:35;100152.79;;;1.13;90.42
34034;BME280;63481;52.588;22.472;2023-04-27T01:15:08;100152.80;;;1.11;90.64
34034;BME280;63481;52.588;22.472;2023-04-27T01:15:40;100153.98;;;1.12;90.76
34034;BME280;63481;52.588;22.472;2023-04-27T01:16:16;100152.43;;;1.11;90.65
34034;BME280;63481;52.588;22.472;2023-04-27T01:16:50;100151.64;;;1.10;90.71
34034;BME280;63481;52.588;22.472;2023-04-27T01:17:22;100154.16;;;1.15;90.77
34034;BME280;63481;52.588;22.472;2023-04-27T01:17:58;100154.06;;;1.16;90.75
34034;BME280;63481;52.588;22.472;2023-04-27T01:18:33;100152.55;;;1.15;90.55
34034;BME280;63481;52.588;22.472;2023-04-27T01:19:07;100152.93;;;1.13;90.69
34034;BME280;63481;52.588;22.472;2023-04-27T01:19:40;100155.11;;;1.13;90.86
34034;BME280;63481;52.588;22.472;2023-04-27T01:20:12;100154.05;;;1.09;90.89
34034;BME280;63481;52.588;22.472;2023-04-27T01:20:44;100152.52;;;1.05;91.01
34034;BME280;63481;52.588;22.472;2023-04-27T01:21:16;100149.05;;;1.06;91.12
34034;BME280;63481;52.588;22.472;2023-04-27T01:21:48;100154.23;;;1.13;91.23
34034;BME280;63481;52.588;22.472;2023-04-27T01:22:20;100152.95;;;1.17;91.23
34034;BME280;63481;52.588;22.472;2023-04-27T01:22:53;100153.10;;;1.15;90.95
34034;BME280;63481;52.588;22.472;2023-04-27T01:23:25;100151.36;;;1.15;90.77
34034;BME280;63481;52.588;22.472;2023-04-27T01:23:57;100151.38;;;1.18;90.79
34034;BME280;63481;52.588;22.472;2023-04-27T01:24:29;100154.58;;;1.18;90.63
34034;BME280;63481;52.588;22.472;2023-04-27T01:25:02;100153.77;;;1.17;90.66
34034;BME280;63481;52.588;22.472;2023-04-27T01:25:36;100154.54;;;1.15;90.56
34034;BME280;63481;52.588;22.472;2023-04-27T01:26:08;100157.23;;;1.12;90.66
34034;BME280;63481;52.588;22.472;2023-04-27T01:26:42;100159.20;;;1.17;90.59
34034;BME280;63481;52.588;22.472;2023-04-27T01:27:15;100157.42;;;1.14;90.61
34034;BME280;63481;52.588;22.472;2023-04-27T01:27:48;100156.44;;;1.11;90.68
34034;BME280;63481;52.588;22.472;2023-04-27T01:28:20;100160.06;;;1.12;90.73
34034;BME280;63481;52.588;22.472;2023-04-27T01:28:52;100159.93;;;1.15;90.75
34034;BME280;63481;52.588;22.472;2023-04-27T01:29:24;100158.00;;;1.15;90.73
34034;BME280;63481;52.588;22.472;2023-04-27T01:29:57;100160.33;;;1.18;90.73
34034;BME280;63481;52.588;22.472;2023-04-27T01:30:29;100161.71;;;1.19;90.42
34034;BME280;63481;52.588;22.472;2023-04-27T01:31:01;100161.29;;;1.23;90.48
34034;BME280;63481;52.588;22.472;2023-04-27T01:31:33;100163.02;;;1.23;90.39
34034;BME280;63481;52.588;22.472;2023-04-27T01:32:05;100163.14;;;1.24;90.22
34034;BME280;63481;52.588;22.472;2023-04-27T01:32:37;100160.71;;;1.22;90.14
34034;BME280;63481;52.588;22.472;2023-04-27T01:33:09;100164.97;;;1.19;90.31
34034;BME280;63481;52.588;22.472;2023-04-27T01:33:41;100161.48;;;1.19;90.25
34034;BME280;63481;52.588;22.472;2023-04-27T01:34:13;100163.63;;;1.16;90.37
34034;BME280;63481;52.588;22.472;2023-04-27T01:34:45;100161.83;;;1.14;90.47
34034;BME280;63481;52.588;22.472;2023-04-27T01:35:17;100164.91;;;1.11;90.65
34034;BME280;63481;52.588;22.472;2023-04-27T01:35:49;100164.65;;;1.12;90.68
34034;BME280;63481;52.588;22.472;2023-04-27T01:36:21;100164.70;;;1.11;90.77
34034;BME280;63481;52.588;22.472;2023-04-27T01:36:53;100162.50;;;1.10;90.93
34034;BME280;63481;52.588;22.472;2023-04-27T01:37:26;100161.45;;;1.07;90.95
34034;BME280;63481;52.588;22.472;2023-04-27T01:37:58;100162.08;;;1.11;91.05
34034;BME280;63481;52.588;22.472;2023-04-27T01:38:34;100162.59;;;1.15;91.02
34034;BME280;63481;52.588;22.472;2023-04-27T01:39:06;100162.88;;;1.12;91.02
34034;BME280;63481;52.588;22.472;2023-04-27T01:39:40;100164.00;;;1.09;91.10
34034;BME280;63481;52.588;22.472;2023-04-27T01:40:13;100161.39;;;1.07;91.30
34034;BME280;63481;52.588;22.472;2023-04-27T01:40:45;100166.20;;;1.08;91.41
34034;BME280;63481;52.588;22.472;2023-04-27T01:41:18;100162.15;;;1.01;91.35
34034;BME280;63481;52.588;22.472;2023-04-27T01:41:50;100165.84;;;0.96;91.34
34034;BME280;63481;52.588;22.472;2023-04-27T01:42:22;100164.57;;;0.93;91.58
34034;BME280;63481;52.588;22.472;2023-04-27T01:42:54;100169.69;;;0.90;91.55
34034;BME280;63481;52.588;22.472;2023-04-27T01:43:27;100163.45;;;0.86;91.73
34034;BME280;63481;52.588;22.472;2023-04-27T01:43:59;100165.26;;;0.82;91.95
34034;BME280;63481;52.588;22.472;2023-04-27T01:44:33;100165.33;;;0.79;92.38
34034;BME280;63481;52.588;22.472;2023-04-27T01:45:06;100167.77;;;0.80;92.37
34034;BME280;63481;52.588;22.472;2023-04-27T01:45:38;100166.72;;;0.78;92.46
34034;BME280;63481;52.588;22.472;2023-04-27T01:46:12;100167.98;;;0.77;92.66
34034;BME280;63481;52.588;22.472;2023-04-27T01:46:44;100169.65;;;0.78;92.74
34034;BME280;63481;52.588;22.472;2023-04-27T01:47:16;100168.08;;;0.82;92.75
34034;BME280;63481;52.588;22.472;2023-04-27T01:47:51;100169.20;;;0.81;92.76
34034;BME280;63481;52.588;22.472;2023-04-27T01:48:24;100166.70;;;0.76;92.93
34034;BME280;63481;52.588;22.472;2023-04-27T01:48:56;100170.44;;;0.76;92.85
34034;BME280;63481;52.588;22.472;2023-04-27T01:49:28;100170.87;;;0.71;92.87
34034;BME280;63481;52.588;22.472;2023-04-27T01:50:01;100172.06;;;0.69;92.95
34034;BME280;63481;52.588;22.472;2023-04-27T01:50:33;100174.66;;;0.70;93.09
34034;BME280;63481;52.588;22.472;2023-04-27T01:51:05;100175.45;;;0.67;93.11
34034;BME280;63481;52.588;22.472;2023-04-27T01:51:37;100177.40;;;0.65;93.08
34034;BME280;63481;52.588;22.472;2023-04-27T01:52:09;100175.20;;;0.63;93.28
34034;BME280;63481;52.588;22.472;2023-04-27T01:52:41;100173.65;;;0.60;93.36
34034;BME280;63481;52.588;22.472;2023-04-27T01:53:13;100176.38;;;0.61;93.51
34034;BME280;63481;52.588;22.472;2023-04-27T01:53:45;100175.02;;;0.59;93.56
34034;BME280;63481;52.588;22.472;2023-04-27T01:54:17;100174.01;;;0.56;93.75
34034;BME280;63481;52.588;22.472;2023-04-27T01:54:49;100175.71;;;0.55;93.59
34034;BME280;63481;52.588;22.472;2023-04-27T01:55:22;100175.42;;;0.56;93.78
34034;BME280;63481;52.588;22.472;2023-04-27T01:55:54;100172.89;;;0.55;93.71
34034;BME280;63481;52.588;22.472;2023-04-27T01:56:26;100176.35;;;0.56;93.70
34034;BME280;63481;52.588;22.472;2023-04-27T01:56:59;100175.84;;;0.55;93.72
34034;BME280;63481;52.588;22.472;2023-04-27T01:57:32;100176.69;;;0.54;93.76
34034;BME280;63481;52.588;22.472;2023-04-27T01:58:04;100178.43;;;0.52;93.80
34034;BME280;63481;52.588;22.472;2023-04-27T01:58:37;100174.70;;;0.53;93.98
34034;BME280;63481;52.588;22.472;2023-04-27T01:59:09;100176.45;;;0.51;93.80
34034;BME280;63481;52.588;22.472;2023-04-27T01:59:41;100177.21;;;0.52;93.89
34034;BME280;63481;52.588;22.472;2023-04-27T02:00:13;100178.00;;;0.51;93.82
34034;BME280;63481;52.588;22.472;2023-04-27T02:00:54;100177.73;;;0.47;93.89
34034;BME280;63481;52.588;22.472;2023-04-27T02:01:26;100178.64;;;0.46;93.68
34034;BME280;63481;52.588;22.472;2023-04-27T02:01:58;100180.34;;;0.45;93.84
34034;BME280;63481;52.588;22.472;2023-04-27T02:02:30;100179.52;;;0.48;93.81
34034;BME280;63481;52.588;22.472;2023-04-27T02:03:03;100177.42;;;0.50;93.91
34034;BME280;63481;52.588;22.472;2023-04-27T02:03:34;100180.56;;;0.52;93.85
34034;BME280;63481;52.588;22.472;2023-04-27T02:04:07;100181.40;;;0.50;93.55
34034;BME280;63481;52.588;22.472;2023-04-27T02:04:40;100181.44;;;0.55;93.54
34034;BME280;63481;52.588;22.472;2023-04-27T02:05:13;100180.69;;;0.56;93.34
34034;BME280;63481;52.588;22.472;2023-04-27T02:05:45;100182.85;;;0.53;93.34
34034;BME280;63481;52.588;22.472;2023-04-27T02:06:18;100180.20;;;0.54;93.26
34034;BME280;63481;52.588;22.472;2023-04-27T02:06:51;100181.37;;;0.58;93.30
34034;BME280;63481;52.588;22.472;2023-04-27T02:07:23;100181.75;;;0.65;93.30
34034;BME280;63481;52.588;22.472;2023-04-27T02:07:55;100181.42;;;0.65;93.18
34034;BME280;63481;52.588;22.472;2023-04-27T02:08:27;100178.73;;;0.64;92.94
34034;BME280;63481;52.588;22.472;2023-04-27T02:08:59;100178.98;;;0.65;92.84
34034;BME280;63481;52.588;22.472;2023-04-27T02:09:31;100180.48;;;0.64;92.84
34034;BME280;63481;52.588;22.472;2023-04-27T02:10:03;100184.09;;;0.66;92.78
34034;BME280;63481;52.588;22.472;2023-04-27T02:10:36;100183.48;;;0.67;92.76
34034;BME280;63481;52.588;22.472;2023-04-27T02:11:08;100183.75;;;0.68;92.66
34034;BME280;63481;52.588;22.472;2023-04-27T02:11:40;100181.48;;;0.65;92.53
34034;BME280;63481;52.588;22.472;2023-04-27T02:12:12;100181.92;;;0.63;92.66
34034;BME280;63481;52.588;22.472;2023-04-27T02:12:45;100180.56;;;0.65;92.62
34034;BME280;63481;52.588;22.472;2023-04-27T02:13:16;100183.26;;;0.68;92.54
34034;BME280;63481;52.588;22.472;2023-04-27T02:13:48;100184.41;;;0.67;92.41
34034;BME280;63481;52.588;22.472;2023-04-27T02:14:20;100186.02;;;0.68;92.40
34034;BME280;63481;52.588;22.472;2023-04-27T02:14:53;100186.39;;;0.66;92.38
34034;BME280;63481;52.588;22.472;2023-04-27T02:15:25;100183.85;;;0.67;92.36
34034;BME280;63481;52.588;22.472;2023-04-27T02:15:57;100186.12;;;0.69;92.42
34034;BME280;63481;52.588;22.472;2023-04-27T02:16:29;100185.55;;;0.69;92.30
34034;BME280;63481;52.588;22.472;2023-04-27T02:17:01;100185.28;;;0.67;92.15
34034;BME280;63481;52.588;22.472;2023-04-27T02:17:34;100185.14;;;0.63;92.19
34034;BME280;63481;52.588;22.472;2023-04-27T02:18:06;100185.08;;;0.58;92.03
34034;BME280;63481;52.588;22.472;2023-04-27T02:18:38;100186.79;;;0.58;92.19
34034;BME280;63481;52.588;22.472;2023-04-27T02:19:11;100185.65;;;0.55;92.23
34034;BME280;63481;52.588;22.472;2023-04-27T02:19:43;100187.20;;;0.57;92.32
34034;BME280;63481;52.588;22.472;2023-04-27T02:20:15;100186.81;;;0.58;92.24
34034;BME280;63481;52.588;22.472;2023-04-27T02:20:47;100185.90;;;0.56;92.19
34034;BME280;63481;52.588;22.472;2023-04-27T02:21:19;100188.19;;;0.54;92.31
34034;BME280;63481;52.588;22.472;2023-04-27T02:21:51;100183.66;;;0.51;92.35
34034;BME280;63481;52.588;22.472;2023-04-27T02:22:23;100182.57;;;0.47;92.48
34034;BME280;63481;52.588;22.472;2023-04-27T02:22:56;100188.13;;;0.44;92.58
34034;BME280;63481;52.588;22.472;2023-04-27T02:23:31;100187.54;;;0.39;92.66
34034;BME280;63481;52.588;22.472;2023-04-27T02:24:03;100186.49;;;0.37;92.62
34034;BME280;63481;52.588;22.472;2023-04-27T02:24:35;100184.23;;;0.35;92.71
34034;BME280;63481;52.588;22.472;2023-04-27T02:25:08;100186.73;;;0.40;92.84
34034;BME280;63481;52.588;22.472;2023-04-27T02:25:40;100189.19;;;0.40;92.91
34034;BME280;63481;52.588;22.472;2023-04-27T02:26:18;100186.67;;;0.41;92.94
34034;BME280;63481;52.588;22.472;2023-04-27T02:26:51;100186.51;;;0.39;92.87
34034;BME280;63481;52.588;22.472;2023-04-27T02:27:23;100186.67;;;0.39;92.88
34034;BME280;63481;52.588;22.472;2023-04-27T02:27:55;100183.98;;;0.38;92.91
34034;BME280;63481;52.588;22.472;2023-04-27T02:28:27;100187.45;;;0.40;92.91
34034;BME280;63481;52.588;22.472;2023-04-27T02:28:59;100188.89;;;0.40;92.82
34034;BME280;63481;52.588;22.472;2023-04-27T02:29:31;100188.09;;;0.43;92.64
34034;BME280;63481;52.588;22.472;2023-04-27T02:30:06;100185.61;;;0.39;92.66
34034;BME280;63481;52.588;22.472;2023-04-27T02:30:39;100187.14;;;0.40;92.82
34034;BME280;63481;52.588;22.472;2023-04-27T02:31:11;100183.50;;;0.39;92.77
34034;BME280;63481;52.588;22.472;2023-04-27T02:31:44;100187.70;;;0.45;92.73
34034;BME280;63481;52.588;22.472;2023-04-27T02:32:18;100185.20;;;0.45;92.67
34034;BME280;63481;52.588;22.472;2023-04-27T02:32:50;100181.17;;;0.44;92.75
34034;BME280;63481;52.588;22.472;2023-04-27T02:33:22;100184.14;;;0.44;92.54
34034;BME280;63481;52.588;22.472;2023-04-27T02:33:55;100185.40;;;0.45;92.64
34034;BME280;63481;52.588;22.472;2023-04-27T02:34:30;100187.88;;;0.47;92.46
34034;BME280;63481;52.588;22.472;2023-04-27T02:35:02;100189.25;;;0.47;92.49
34034;BME280;63481;52.588;22.472;2023-04-27T02:35:35;100187.05;;;0.44;92.30
34034;BME280;63481;52.588;22.472;2023-04-27T02:36:07;100187.52;;;0.43;92.38
34034;BME280;63481;52.588;22.472;2023-04-27T02:36:39;100188.25;;;0.41;92.32
34034;BME280;63481;52.588;22.472;2023-04-27T02:37:13;100189.42;;;0.40;92.18
34034;BME280;63481;52.588;22.472;2023-04-27T02:37:46;100185.75;;;0.36;92.18
34034;BME280;63481;52.588;22.472;2023-04-27T02:38:20;100185.83;;;0.39;92.33
34034;BME280;63481;52.588;22.472;2023-04-27T02:38:52;100189.03;;;0.38;92.38
34034;BME280;63481;52.588;22.472;2023-04-27T02:39:24;100188.35;;;0.42;92.19
34034;BME280;63481;52.588;22.472;2023-04-27T02:39:56;100186.45;;;0.43;92.37
34034;BME280;63481;52.588;22.472;2023-04-27T02:40:28;100186.01;;;0.44;92.24
34034;BME280;63481;52.588;22.472;2023-04-27T02:41:00;100187.23;;;0.41;92.08
34034;BME280;63481;52.588;22.472;2023-04-27T02:41:32;100185.73;;;0.40;92.40
34034;BME280;63481;52.588;22.472;2023-04-27T02:42:04;100184.98;;;0.37;92.41
34034;BME280;63481;52.588;22.472;2023-04-27T02:42:36;100187.14;;;0.34;92.33
34034;BME280;63481;52.588;22.472;2023-04-27T02:43:09;100184.03;;;0.32;92.24
34034;BME280;63481;52.588;22.472;2023-04-27T02:43:43;100187.70;;;0.34;92.35
34034;BME280;63481;52.588;22.472;2023-04-27T02:44:15;100184.95;;;0.33;92.48
34034;BME280;63481;52.588;22.472;2023-04-27T02:44:47;100187.57;;;0.30;92.33
34034;BME280;63481;52.588;22.472;2023-04-27T02:45:19;100186.00;;;0.30;92.32
34034;BME280;63481;52.588;22.472;2023-04-27T02:45:51;100187.09;;;0.31;92.43
34034;BME280;63481;52.588;22.472;2023-04-27T02:46:23;100184.30;;;0.33;92.40
34034;BME280;63481;52.588;22.472;2023-04-27T02:46:55;100185.36;;;0.31;92.48
34034;BME280;63481;52.588;22.472;2023-04-27T02:47:27;100188.39;;;0.32;92.52
34034;BME280;63481;52.588;22.472;2023-04-27T02:47:59;100184.98;;;0.30;92.60
34034;BME280;63481;52.588;22.472;2023-04-27T02:48:31;100184.14;;;0.27;92.54
34034;BME280;63481;52.588;22.472;2023-04-27T02:49:03;100188.27;;;0.32;92.65
34034;BME280;63481;52.588;22.472;2023-04-27T02:49:36;100185.65;;;0.35;92.51
34034;BME280;63481;52.588;22.472;2023-04-27T02:50:08;100186.81;;;0.32;92.46
34034;BME280;63481;52.588;22.472;2023-04-27T02:50:43;100185.20;;;0.27;92.49